Terminal Aerodrome Forecast
Issued by NWS Wilmington, OH

Home | Current Version | Previous Version | Text Only | Print | Product List | Glossary On
Versions: 1 2 3 4 5 6 7 8 9 10 11 12 13 14 15 16 17 18 19 20 21 22 23
280
FTUS41 KILN 140855 AAA
TAFCVG
TAF AMD
KCVG 140855Z 1409/1512 09005KT P6SM OVC150
     FM141500 12009KT P6SM OVC070
     FM141900 12009KT 4SM -SN SCT015 OVC035
     FM142100 12009KT 1SM -SN SCT008 OVC015
     FM150300 14008KT 4SM -SN OVC008=

USA.gov is the U.S. government's official web portal to all federal, state and local government web resources and services.